Time,TemperatureF,DewpointF,PressureIn,WindDirection,WindDirectionDegrees,WindSpeedMPH,WindSpeedGustMPH,Humidity,HourlyPrecipIn,Conditions,Clouds,dailyrainin,SoftwareType,DateUTC
2013-02-21 00:10:00,24.7,16.0,30.07,NW,315,0.0,2.0,69,0.00,,,0.00,weatherlink.com 1.10,2013-02-21 05:10:00,
2013-02-21 00:25:00,24.6,16.0,30.08,West,277,0.0,1.0,69,0.00,,,0.00,weatherlink.com 1.10,2013-02-21 05:25:00,
2013-02-21 00:40:00,24.5,15.0,30.08,WNW,290,0.0,2.0,68,0.00,,,0.00,weatherlink.com 1.10,2013-02-21 05:40:00,
2013-02-21 00:55:00,24.4,15.0,30.08,WNW,297,1.0,2.0,68,0.00,,,0.00,weatherlink.com 1.10,2013-02-21 05:55:00,
2013-02-21 01:10:00,24.6,15.0,30.07,WNW,294,1.0,3.0,68,0.00,,,0.00,weatherlink.com 1.10,2013-02-21 06:10:00,
2013-02-21 01:25:00,24.7,15.0,30.06,WNW,292,1.0,4.0,67,0.00,,,0.00,weatherlink.com 1.10,2013-02-21 06:25:00,
2013-02-21 01:40:00,24.4,15.0,30.06,WNW,291,0.0,2.0,67,0.00,,,0.00,weatherlink.com 1.10,2013-02-21 06:40:00,
2013-02-21 01:55:00,24.2,15.0,30.06,NW,305,0.0,2.0,69,0.00,,,0.00,weatherlink.com 1.10,2013-02-21 06:55:00,
2013-02-21 02:10:00,24.2,15.0,30.06,NW,312,1.0,2.0,68,0.00,,,0.00,weatherlink.com 1.10,2013-02-21 07:10:00,
2013-02-21 02:25:00,24.0,15.0,30.06,NW,316,0.0,1.0,69,0.00,,,0.00,weatherlink.com 1.10,2013-02-21 07:25:00,
2013-02-21 02:41:00,23.5,15.0,30.06,NW,320,0.0,3.0,70,0.00,,,0.00,weatherlink.com 1.10,2013-02-21 07:41:00,
2013-02-21 02:55:00,23.3,15.0,30.07,WNW,290,0.0,1.0,70,0.00,,,0.00,weatherlink.com 1.10,2013-02-21 07:55:00,
2013-02-21 03:10:00,22.7,15.0,30.06,NW,304,0.0,1.0,72,0.00,,,0.00,weatherlink.com 1.10,2013-02-21 08:10:00,
2013-02-21 03:25:00,23.0,15.0,30.06,West,275,0.0,1.0,72,0.00,,,0.00,weatherlink.com 1.10,2013-02-21 08:25:00,
2013-02-21 03:40:00,22.9,15.0,30.06,WNW,290,0.0,1.0,72,0.00,,,0.00,weatherlink.com 1.10,2013-02-21 08:40:00,
2013-02-21 03:55:00,22.8,15.0,30.06,West,281,0.0,1.0,72,0.00,,,0.00,weatherlink.com 1.10,2013-02-21 08:55:00,
2013-02-21 04:10:00,22.6,15.0,30.06,NW,311,0.0,1.0,73,0.00,,,0.00,weatherlink.com 1.10,2013-02-21 09:10:00,
2013-02-21 04:25:00,22.5,15.0,30.06,WNW,284,0.0,1.0,73,0.00,,,0.00,weatherlink.com 1.10,2013-02-21 09:25:00,
2013-02-21 04:40:00,22.3,15.0,30.06,WNW,283,0.0,1.0,74,0.00,,,0.00,weatherlink.com 1.10,2013-02-21 09:40:00,
2013-02-21 04:55:00,21.9,15.0,30.07,WNW,283,0.0,1.0,75,0.00,,,0.00,weatherlink.com 1.10,2013-02-21 09:55:00,
2013-02-21 05:10:00,21.5,15.0,30.07,WNW,282,0.0,1.0,76,0.00,,,0.00,weatherlink.com 1.10,2013-02-21 10:10:00,
2013-02-21 05:25:00,21.3,15.0,30.08,West,276,0.0,1.0,77,0.00,,,0.00,weatherlink.com 1.10,2013-02-21 10:25:00,
2013-02-21 05:40:00,20.9,15.0,30.08,West,277,0.0,1.0,77,0.00,,,0.00,weatherlink.com 1.10,2013-02-21 10:40:00,
2013-02-21 05:55:00,20.8,15.0,30.08,West,273,0.0,1.0,78,0.00,,,0.00,weatherlink.com 1.10,2013-02-21 10:55:00,
2013-02-21 06:10:00,20.6,15.0,30.09,West,274,0.0,1.0,78,0.00,,,0.00,weatherlink.com 1.10,2013-02-21 11:10:00,
2013-02-21 06:25:00,20.8,15.0,30.08,West,281,0.0,2.0,78,0.00,,,0.00,weatherlink.com 1.10,2013-02-21 11:25:00,
2013-02-21 06:40:00,20.8,15.0,30.09,WNW,292,0.0,1.0,79,0.00,,,0.00,weatherlink.com 1.10,2013-02-21 11:40:00,
2013-02-21 06:55:00,20.9,16.0,30.09,NW,311,0.0,1.0,80,0.00,,,0.00,weatherlink.com 1.10,2013-02-21 11:55:00,
2013-02-21 07:10:00,21.4,16.0,30.09,WNW,298,0.0,1.0,79,0.00,,,0.00,weatherlink.com 1.10,2013-02-21 12:10:00,
2013-02-21 07:25:00,22.4,17.0,30.09,WNW,294,0.0,2.0,78,0.00,,,0.00,weatherlink.com 1.10,2013-02-21 12:25:00,
2013-02-21 07:40:00,23.5,17.0,30.09,West,277,0.0,2.0,75,0.00,,,0.00,weatherlink.com 1.10,2013-02-21 12:40:00,
2013-02-21 07:56:00,24.5,17.0,30.10,NW,308,0.0,1.0,73,0.00,,,0.00,weatherlink.com 1.10,2013-02-21 12:56:00,
2013-02-21 08:10:00,25.9,17.0,30.10,WNW,290,0.0,2.0,70,0.00,,,0.00,weatherlink.com 1.10,2013-02-21 13:10:00,
2013-02-21 08:25:00,27.4,17.0,30.10,NW,311,1.0,3.0,65,0.00,,,0.00,weatherlink.com 1.10,2013-02-21 13:25:00,
2013-02-21 08:44:00,28.1,17.0,30.10,NNW,332,1.0,4.0,64,0.00,,,0.00,weatherlink.com 1.10,2013-02-21 13:44:00,
2013-02-21 08:55:00,29.1,17.0,30.10,NW,312,0.0,3.0,61,0.00,,,0.00,weatherlink.com 1.10,2013-02-21 13:55:00,
2013-02-21 09:11:00,29.8,17.0,30.10,NW,311,2.0,7.0,59,0.00,,,0.00,weatherlink.com 1.10,2013-02-21 14:11:00,
2013-02-21 09:29:00,30.6,17.0,30.10,NW,304,1.0,4.0,58,0.00,,,0.00,weatherlink.com 1.10,2013-02-21 14:29:00,
2013-02-21 09:41:00,31.1,17.0,30.09,NW,321,1.0,4.0,57,0.00,,,0.00,weatherlink.com 1.10,2013-02-21 14:41:00,
2013-02-21 09:56:00,31.7,17.0,30.09,NW,312,1.0,3.0,56,0.00,,,0.00,weatherlink.com 1.10,2013-02-21 14:56:00,
2013-02-21 10:11:00,32.5,18.0,30.09,NW,315,2.0,4.0,56,0.00,,,0.00,weatherlink.com 1.10,2013-02-21 15:11:00,
2013-02-21 10:26:00,33.2,18.0,30.09,WNW,298,1.0,3.0,54,0.00,,,0.00,weatherlink.com 1.10,2013-02-21 15:26:00,
2013-02-21 10:41:00,33.6,18.0,30.09,WNW,295,2.0,4.0,53,0.00,,,0.00,weatherlink.com 1.10,2013-02-21 15:41:00,
2013-02-21 10:56:00,33.6,18.0,30.10,WNW,292,1.0,3.0,53,0.00,,,0.00,weatherlink.com 1.10,2013-02-21 15:56:00,
2013-02-21 11:11:00,34.0,18.0,30.10,NW,313,1.0,3.0,52,0.00,,,0.00,weatherlink.com 1.10,2013-02-21 16:11:00,
2013-02-21 11:26:00,34.4,18.0,30.09,NNW,336,2.0,3.0,52,0.00,,,0.00,weatherlink.com 1.10,2013-02-21 16:26:00,
2013-02-21 11:41:00,35.3,20.0,30.08,NW,325,1.0,4.0,54,0.00,,,0.00,weatherlink.com 1.10,2013-02-21 16:41:00,
2013-02-21 11:56:00,35.6,20.0,30.07,NW,308,1.0,4.0,53,0.00,,,0.00,weatherlink.com 1.10,2013-02-21 16:56:00,
2013-02-21 12:11:00,35.9,21.0,30.07,NNW,330,1.0,3.0,54,0.00,,,0.00,weatherlink.com 1.10,2013-02-21 17:11:00,
2013-02-21 12:26:00,36.3,20.0,30.05,NNW,340,2.0,5.0,51,0.00,,,0.00,weatherlink.com 1.10,2013-02-21 17:26:00,
2013-02-21 12:41:00,36.5,19.0,30.05,WNW,303,1.0,4.0,50,0.00,,,0.00,weatherlink.com 1.10,2013-02-21 17:41:00,
2013-02-21 12:56:00,36.8,20.0,30.06,WNW,301,1.0,3.0,52,0.00,,,0.00,weatherlink.com 1.10,2013-02-21 17:56:00,
2013-02-21 13:11:00,36.8,20.0,30.05,NW,305,1.0,4.0,51,0.00,,,0.00,weatherlink.com 1.10,2013-02-21 18:11:00,
2013-02-21 13:26:00,36.8,20.0,30.05,NNW,327,2.0,4.0,51,0.00,,,0.00,weatherlink.com 1.10,2013-02-21 18:26:00,
2013-02-21 13:41:00,37.5,21.0,30.05,WNW,300,1.0,5.0,52,0.00,,,0.00,weatherlink.com 1.10,2013-02-21 18:41:00,
2013-02-21 13:57:00,37.4,20.0,30.05,NW,320,2.0,4.0,50,0.00,,,0.00,weatherlink.com 1.10,2013-02-21 18:57:00,
2013-02-21 14:11:00,37.6,21.0,30.06,NW,322,3.0,4.0,52,0.00,,,0.00,weatherlink.com 1.10,2013-02-21 19:11:00,
2013-02-21 14:26:00,37.8,21.0,30.06,NW,326,1.0,4.0,50,0.00,,,0.00,weatherlink.com 1.10,2013-02-21 19:26:00,
2013-02-21 14:41:00,38.0,21.0,30.06,WNW,301,2.0,3.0,51,0.00,,,0.00,weatherlink.com 1.10,2013-02-21 19:41:00,
2013-02-21 14:56:00,37.9,21.0,30.05,NW,314,1.0,4.0,51,0.00,,,0.00,weatherlink.com 1.10,2013-02-21 19:56:00,
2013-02-21 15:11:00,37.9,21.0,30.06,WNW,301,1.0,3.0,50,0.00,,,0.00,weatherlink.com 1.10,2013-02-21 20:11:00,
2013-02-21 15:26:00,37.5,21.0,30.06,NW,310,1.0,4.0,52,0.00,,,0.00,weatherlink.com 1.10,2013-02-21 20:26:00,
2013-02-21 15:42:00,37.3,21.0,30.07,NW,318,2.0,3.0,53,0.00,,,0.00,weatherlink.com 1.10,2013-02-21 20:42:00,
2013-02-21 15:56:00,36.9,21.0,30.07,NW,316,2.0,4.0,52,0.00,,,0.00,weatherlink.com 1.10,2013-02-21 20:56:00,
2013-02-21 16:11:00,36.4,21.0,30.08,NNW,329,2.0,3.0,53,0.00,,,0.00,weatherlink.com 1.10,2013-02-21 21:11:00,
2013-02-21 16:26:00,36.0,21.0,30.09,NW,318,1.0,3.0,54,0.00,,,0.00,weatherlink.com 1.10,2013-02-21 21:26:00,
2013-02-21 16:41:00,35.3,20.0,30.10,WNW,295,1.0,5.0,53,0.00,,,0.00,weatherlink.com 1.10,2013-02-21 21:41:00,
2013-02-21 16:56:00,35.1,20.0,30.10,NW,315,1.0,3.0,55,0.00,,,0.00,weatherlink.com 1.10,2013-02-21 21:56:00,
2013-02-21 17:11:00,34.4,20.0,30.10,NNW,330,1.0,2.0,57,0.00,,,0.00,weatherlink.com 1.10,2013-02-21 22:11:00,
2013-02-21 17:26:00,33.8,20.0,30.11,NW,323,0.0,2.0,58,0.00,,,0.00,weatherlink.com 1.10,2013-02-21 22:26:00,
2013-02-21 17:41:00,33.0,20.0,30.11,NW,308,0.0,1.0,60,0.00,,,0.00,weatherlink.com 1.10,2013-02-21 22:41:00,
2013-02-21 17:56:00,32.6,20.0,30.13,NW,311,0.0,1.0,60,0.00,,,0.00,weatherlink.com 1.10,2013-02-21 22:56:00,
2013-02-21 18:12:00,31.9,20.0,30.14,NW,308,0.0,1.0,62,0.00,,,0.00,weatherlink.com 1.10,2013-02-21 23:12:00,
2013-02-21 18:27:00,30.7,20.0,30.16,WNW,295,0.0,1.0,65,0.00,,,0.00,weatherlink.com 1.10,2013-02-21 23:27:00,
2013-02-21 18:42:00,30.2,20.0,30.18,WNW,295,0.0,1.0,67,0.00,,,0.00,weatherlink.com 1.10,2013-02-21 23:42:00,
2013-02-21 18:57:00,30.1,20.0,30.19,WNW,295,0.0,1.0,67,0.00,,,0.00,weatherlink.com 1.10,2013-02-21 23:57:00,
2013-02-21 19:12:00,29.4,20.0,30.21,WNW,295,0.0,1.0,68,0.00,,,0.00,weatherlink.com 1.10,2013-02-22 00:12:00,
2013-02-21 19:27:00,28.6,20.0,30.21,WNW,295,0.0,0.0,69,0.00,,,0.00,weatherlink.com 1.10,2013-02-22 00:27:00,
2013-02-21 19:57:00,28.9,21.0,30.23,WNW,297,0.0,0.0,71,0.00,,,0.00,weatherlink.com 1.10,2013-02-22 00:57:00,
2013-02-21 20:12:00,28.4,20.0,30.22,WNW,295,0.0,1.0,71,0.00,,,0.00,weatherlink.com 1.10,2013-02-22 01:12:00,
2013-02-21 20:27:00,28.1,20.0,30.22,WNW,295,0.0,1.0,72,0.00,,,0.00,weatherlink.com 1.10,2013-02-22 01:27:00,
2013-02-21 20:42:00,27.7,20.0,30.22,WNW,295,0.0,0.0,73,0.00,,,0.00,weatherlink.com 1.10,2013-02-22 01:42:00,
2013-02-21 20:57:00,27.7,20.0,30.22,WNW,295,0.0,1.0,74,0.00,,,0.00,weatherlink.com 1.10,2013-02-22 01:57:00,
2013-02-21 21:12:00,27.6,21.0,30.23,WNW,295,0.0,1.0,75,0.00,,,0.00,weatherlink.com 1.10,2013-02-22 02:12:00,
2013-02-21 21:27:00,28.1,21.0,30.23,WNW,301,0.0,0.0,76,0.00,,,0.00,weatherlink.com 1.10,2013-02-22 02:27:00,
2013-02-21 21:42:00,28.4,21.0,30.24,NW,311,0.0,1.0,74,0.00,,,0.00,weatherlink.com 1.10,2013-02-22 02:42:00,
2013-02-21 21:57:00,28.2,21.0,30.25,NW,319,0.0,1.0,75,0.00,,,0.00,weatherlink.com 1.10,2013-02-22 02:57:00,
2013-02-21 22:12:00,29.2,21.0,30.24,NNW,337,0.0,2.0,72,0.00,,,0.00,weatherlink.com 1.10,2013-02-22 03:12:00,
2013-02-21 22:27:00,29.7,21.0,30.25,NNW,334,1.0,1.0,71,0.00,,,0.00,weatherlink.com 1.10,2013-02-22 03:27:00,
2013-02-21 22:42:00,29.5,21.0,30.25,NW,315,1.0,2.0,71,0.00,,,0.00,weatherlink.com 1.10,2013-02-22 03:42:00,
2013-02-21 22:57:00,29.2,21.0,30.27,NNW,333,0.0,1.0,71,0.00,,,0.00,weatherlink.com 1.10,2013-02-22 03:57:00,
2013-02-21 23:12:00,29.0,21.0,30.27,NNW,343,1.0,2.0,71,0.00,,,0.00,weatherlink.com 1.10,2013-02-22 04:12:00,
2013-02-21 23:27:00,28.7,20.0,30.27,NNW,336,1.0,2.0,71,0.00,,,0.00,weatherlink.com 1.10,2013-02-22 04:27:00,
2013-02-21 23:42:00,28.5,20.0,30.28,NNW,334,1.0,1.0,71,0.00,,,0.00,weatherlink.com 1.10,2013-02-22 04:42:00,
2013-02-21 23:57:00,28.1,20.0,30.28,NNW,338,0.0,1.0,72,0.00,,,0.00,weatherlink.com 1.10,2013-02-22 04:57:00,